»·PEaware :: DAL930 KSLC-KPDX

DAL930 :: KSLC-KPDX

FLIGHT INFORMATION

Flight Status: Arrived
Operator:
Delta Air Lines
More flights by this operator :: More flights under this callsign
Pilot: Joe P. (13940)
Aircraft: BOEING 737-700
(B737)
More flights by this aircraft type
Origin: KSLC Salt Lake City Intl
United States
Destination: KPDX Portland Intl
United States
More flights between these airports :: More routes between these airports
Route: CGULL1 TWF J15 BOI J163 BKE JOTBA HHOOD4
File this flight plan on PilotEdge
Remarks: KSEA -PBN / A1B1C1D1L1O1S1 NAV / RNVD1E2A1 DOF / 180930 REG / N389DA EET / KZSE0056 RVR / 200 PER / C
Altitude:
(Current/Filed)
360ft
Speed:
(Current/Filed)
451kts
Departed: 30-Sep-18 03:53 PM
Arrived: 30-Sep-18 05:32 PM
Distance/Time
Traveled:
546nm/1:38
Distance/Time
To Go:
Arrived

Flight Plot

Page will automatically refresh every two minutes.

Flight plan parsing failed; only flown route is shown


Map Options




Map Legend


Flown Route
Filed Route
Departure Airport
Arrival Airport
Navaid (VOR, NDB)
Fix

Horizontal Profiles

Position Reports

Time Latitude Longitude Heading Altitude Ground
Speed
30-Sep-18 14:44 40.788533 -111.980747 280 4235ft 0kts
30-Sep-18 14:45 40.788533 -111.980747 280 4235ft 0kts
30-Sep-18 14:46 40.788533 -111.980747 280 4235ft 0kts
30-Sep-18 14:47 40.788533 -111.980747 280 4235ft 0kts
30-Sep-18 14:48 40.788533 -111.980747 280 4235ft 0kts
30-Sep-18 14:49 40.788533 -111.980747 280 4235ft 0kts
30-Sep-18 14:50 40.788533 -111.980747 280 4235ft 0kts
30-Sep-18 14:51 40.788533 -111.980747 280 4235ft 0kts
30-Sep-18 14:52 40.788533 -111.980747 280 4235ft 0kts
30-Sep-18 14:53 40.788533 -111.980747 280 4235ft 0kts
30-Sep-18 14:54 40.788533 -111.980747 280 4235ft 0kts
30-Sep-18 14:55 40.788533 -111.980747 280 4235ft 0kts
30-Sep-18 14:56 40.788533 -111.980747 280 4235ft 0kts
30-Sep-18 14:57 40.788533 -111.980747 280 4235ft 0kts
30-Sep-18 14:58 40.788533 -111.980747 280 4235ft 0kts
30-Sep-18 14:59 40.788533 -111.980747 280 4235ft 0kts
30-Sep-18 15:00 40.788533 -111.980747 280 4235ft 0kts
30-Sep-18 15:01 40.788533 -111.980747 280 4235ft 0kts
30-Sep-18 15:02 40.788533 -111.980747 280 4235ft 0kts
30-Sep-18 15:03 40.788533 -111.980747 280 4235ft 0kts
30-Sep-18 15:04 40.788533 -111.980747 280 4235ft 0kts
30-Sep-18 15:05 40.788533 -111.980747 280 4235ft 0kts
30-Sep-18 15:06 40.788533 -111.980747 280 4235ft 0kts
30-Sep-18 15:07 40.788533 -111.980747 280 4235ft 0kts
30-Sep-18 15:08 40.788533 -111.980747 280 4235ft 0kts
30-Sep-18 15:09 40.788533 -111.980747 280 4235ft 0kts
30-Sep-18 15:10 40.788533 -111.980747 280 4235ft 0kts
30-Sep-18 15:11 40.788533 -111.980747 280 4235ft 0kts
30-Sep-18 15:12 40.788533 -111.980747 280 4235ft 0kts
30-Sep-18 15:13 40.788533 -111.980747 280 4235ft 0kts
30-Sep-18 15:14 40.788533 -111.980747 280 4235ft 0kts
30-Sep-18 15:15 40.788533 -111.980747 280 4235ft 0kts
30-Sep-18 15:16 40.788533 -111.980747 280 4235ft 0kts
30-Sep-18 15:17 40.788533 -111.980747 280 4235ft 0kts
30-Sep-18 15:18 40.788533 -111.980747 280 4235ft 0kts
30-Sep-18 15:19 40.788533 -111.980747 280 4235ft 0kts
30-Sep-18 15:20 40.788533 -111.980747 280 4235ft 0kts
30-Sep-18 15:21 40.788533 -111.980747 280 4235ft 0kts
30-Sep-18 15:22 40.788533 -111.980747 280 4235ft 0kts
30-Sep-18 15:23 40.788533 -111.980747 280 4235ft 0kts
30-Sep-18 15:24 40.788533 -111.980747 280 4235ft 0kts
30-Sep-18 15:25 40.788533 -111.980747 280 4235ft 0kts
30-Sep-18 15:26 40.788533 -111.980747 280 4235ft 0kts
30-Sep-18 15:27 40.788533 -111.980747 280 4235ft 0kts
30-Sep-18 15:28 40.788533 -111.980747 280 4235ft 0kts
30-Sep-18 15:29 40.788533 -111.980747 280 4235ft 0kts
30-Sep-18 15:30 40.788533 -111.980747 280 4235ft 0kts
30-Sep-18 15:31 40.788533 -111.980747 280 4235ft 0kts
30-Sep-18 15:32 40.788533 -111.980747 280 4235ft 0kts
30-Sep-18 15:33 40.788533 -111.980747 280 4235ft 0kts
30-Sep-18 15:34 40.788533 -111.980747 280 4235ft 0kts
30-Sep-18 15:35 40.788533 -111.980747 280 4235ft 0kts
30-Sep-18 15:36 40.788533 -111.980747 280 4235ft 0kts
30-Sep-18 15:37 40.788533 -111.980747 280 4235ft 0kts
30-Sep-18 15:38 40.788533 -111.980747 280 4235ft 0kts
30-Sep-18 15:39 40.788533 -111.980747 280 4235ft 0kts
30-Sep-18 15:40 40.788528 -111.980710 280 4235ft 1kts
30-Sep-18 15:41 40.788406 -111.979882 280 4235ft 2kts
30-Sep-18 15:42 40.788362 -111.979584 280 4235ft 0kts
30-Sep-18 15:43 40.788362 -111.979584 280 4235ft 0kts
30-Sep-18 15:44 40.788363 -111.979584 280 4235ft 0kts
30-Sep-18 15:45 40.788363 -111.979585 280 4235ft 0kts
30-Sep-18 15:46 40.788363 -111.979586 280 4235ft 0kts
30-Sep-18 15:47 40.788363 -111.979588 280 4235ft 0kts
30-Sep-18 15:48 40.788453 -111.979802 315 4235ft 3kts
30-Sep-18 15:49 40.789724 -111.978497 86 4234ft 13kts
30-Sep-18 15:50 40.785053 -111.976575 175 4234ft 16kts
30-Sep-18 15:51 40.782331 -111.976250 174 4235ft 15kts
30-Sep-18 15:52 40.777076 -111.975209 175 4234ft 20kts
30-Sep-18 15:53 40.774549 -111.974844 148 4234ft 0kts
30-Sep-18 15:54 40.774569 -111.973652 74 4235ft 8kts
30-Sep-18 15:55 40.784493 -111.974260 354 4235ft 132kts
30-Sep-18 15:56 40.830303 -111.979757 353 6986ft 164kts
30-Sep-18 15:57 40.887873 -111.982780 352 8013ft 253kts
30-Sep-18 15:58 40.940420 -112.042787 290 9599ft 280kts
30-Sep-18 15:59 40.974993 -112.143485 288 11726ft 330kts
30-Sep-18 16:00 41.015100 -112.262353 288 13998ft 362kts
30-Sep-18 16:01 41.056706 -112.385794 291 16793ft 373kts
30-Sep-18 16:02 41.136787 -112.482589 320 19164ft 409kts
30-Sep-18 16:03 41.230128 -112.570697 314 21312ft 416kts
30-Sep-18 16:04 41.316034 -112.674273 303 23215ft 417kts
30-Sep-18 16:05 41.394750 -112.790456 303 24919ft 427kts
30-Sep-18 16:06 41.473933 -112.911091 302 26430ft 435kts
30-Sep-18 16:07 41.553760 -113.034012 302 27805ft 443kts
30-Sep-18 16:08 41.635025 -113.159503 302 29082ft 450kts
30-Sep-18 16:09 41.716612 -113.285055 301 30711ft 444kts
30-Sep-18 16:10 41.797039 -113.409820 301 32271ft 439kts
30-Sep-18 16:11 41.876078 -113.533069 300 33706ft 434kts
30-Sep-18 16:12 41.954313 -113.655602 300 35004ft 430kts
30-Sep-18 16:13 42.032285 -113.777757 301 35964ft 432kts
30-Sep-18 16:14 42.110063 -113.900893 300 35980ft 429kts
30-Sep-18 16:15 42.187331 -114.023374 301 35983ft 429kts
30-Sep-18 16:16 42.264821 -114.146288 301 35988ft 429kts
30-Sep-18 16:17 42.342532 -114.269181 301 35988ft 430kts
30-Sep-18 16:18 42.419784 -114.392868 301 35989ft 430kts
30-Sep-18 16:19 42.497411 -114.516779 302 35990ft 432kts
30-Sep-18 16:20 42.576430 -114.639188 305 35989ft 426kts
30-Sep-18 16:21 42.653273 -114.758672 305 35988ft 418kts
30-Sep-18 16:22 42.729926 -114.878054 306 35988ft 419kts
30-Sep-18 16:23 42.806583 -114.997478 306 35990ft 420kts
30-Sep-18 16:24 42.883218 -115.117750 306 35986ft 419kts
30-Sep-18 16:25 42.959486 -115.238066 306 35979ft 420kts
30-Sep-18 16:26 43.035807 -115.359012 307 35971ft 419kts
30-Sep-18 16:27 43.111801 -115.479952 307 35962ft 420kts
30-Sep-18 16:28 43.187827 -115.601463 307 35959ft 420kts
30-Sep-18 16:29 43.263853 -115.723489 307 35960ft 420kts
30-Sep-18 16:30 43.339632 -115.845634 308 35963ft 421kts
30-Sep-18 16:31 43.415616 -115.968105 308 35968ft 421kts
30-Sep-18 16:32 43.491261 -116.091409 308 35969ft 420kts
30-Sep-18 16:33 43.569419 -116.211849 316 35969ft 423kts
30-Sep-18 16:34 43.657391 -116.319657 316 35968ft 423kts
30-Sep-18 16:35 43.745423 -116.427932 316 35963ft 423kts
30-Sep-18 16:36 43.833273 -116.536084 316 35960ft 423kts
30-Sep-18 16:37 43.921284 -116.644359 316 35957ft 423kts
30-Sep-18 16:38 44.008967 -116.752996 316 35954ft 422kts
30-Sep-18 16:39 44.096714 -116.862270 316 35953ft 422kts
30-Sep-18 16:40 44.183960 -116.971395 316 35953ft 422kts
30-Sep-18 16:41 44.271360 -117.081184 316 35958ft 422kts
30-Sep-18 16:42 44.358136 -117.190650 316 35967ft 421kts
30-Sep-18 16:43 44.445160 -117.300896 316 35979ft 421kts
30-Sep-18 16:44 44.531743 -117.411049 316 35990ft 420kts
30-Sep-18 16:45 44.618385 -117.521511 316 35999ft 420kts
30-Sep-18 16:46 44.704816 -117.632259 316 36005ft 421kts
30-Sep-18 16:47 44.791314 -117.744027 316 36009ft 421kts
30-Sep-18 16:48 44.848926 -117.882871 284 36011ft 421kts
30-Sep-18 16:49 44.871303 -118.044853 282 36007ft 421kts
30-Sep-18 16:50 44.892254 -118.207220 281 36003ft 420kts
30-Sep-18 16:51 44.913277 -118.369127 282 36001ft 420kts
30-Sep-18 16:52 44.934160 -118.531196 281 35999ft 419kts
30-Sep-18 16:53 44.954614 -118.693494 281 35999ft 419kts
30-Sep-18 16:54 44.974732 -118.855615 281 35997ft 419kts
30-Sep-18 16:55 44.994584 -119.017752 281 35984ft 418kts
30-Sep-18 16:56 45.014168 -119.179742 281 35980ft 418kts
30-Sep-18 16:57 45.033490 -119.341578 281 35977ft 418kts
30-Sep-18 16:58 45.052599 -119.503666 280 35974ft 418kts
30-Sep-18 16:59 45.071505 -119.666111 280 35970ft 418kts
30-Sep-18 17:00 45.090156 -119.828443 280 35968ft 417kts
30-Sep-18 17:01 45.108546 -119.990627 280 35965ft 417kts
30-Sep-18 17:02 45.127054 -120.153057 280 35704ft 416kts
30-Sep-18 17:03 45.144785 -120.314428 280 32990ft 418kts
30-Sep-18 17:04 45.162734 -120.476379 284 30606ft 409kts
30-Sep-18 17:05 45.206722 -120.621096 298 28565ft 395kts
30-Sep-18 17:06 45.258542 -120.756434 299 26598ft 386kts
30-Sep-18 17:07 45.309219 -120.888994 298 24659ft 379kts
30-Sep-18 17:08 45.359141 -121.020477 298 22727ft 375kts
30-Sep-18 17:09 45.408416 -121.150203 297 20815ft 371kts
30-Sep-18 17:10 45.445481 -121.285810 284 18918ft 365kts
30-Sep-18 17:11 45.471882 -121.422433 285 17642ft 345kts
30-Sep-18 17:12 45.497806 -121.552686 284 16117ft 339kts
30-Sep-18 17:13 45.522514 -121.679113 284 15027ft 319kts
30-Sep-18 17:14 45.532940 -121.800708 271 13909ft 302kts
30-Sep-18 17:15 45.536794 -121.916528 271 12691ft 288kts
30-Sep-18 17:16 45.552948 -122.029182 284 11471ft 293kts
30-Sep-18 17:17 45.576530 -122.140547 283 10286ft 293kts
30-Sep-18 17:18 45.598972 -122.248941 283 9337ft 281kts
30-Sep-18 17:19 45.620779 -122.354704 283 8174ft 265kts
30-Sep-18 17:20 45.641265 -122.454212 284 7095ft 260kts
30-Sep-18 17:21 45.672759 -122.546143 295 6119ft 252kts
30-Sep-18 17:22 45.707954 -122.632798 297 5187ft 250kts
30-Sep-18 17:23 45.741571 -122.718126 297 4994ft 237kts
30-Sep-18 17:24 45.773051 -122.797431 296 4997ft 226kts
30-Sep-18 17:25 45.803887 -122.877635 279 4720ft 228kts
30-Sep-18 17:26 45.766639 -122.933987 207 4159ft 201kts
30-Sep-18 17:27 45.722243 -122.921693 129 4044ft 197kts
30-Sep-18 17:28 45.693696 -122.849963 122 2990ft 199kts
30-Sep-18 17:29 45.671297 -122.792233 124 2915ft 145kts
30-Sep-18 17:30 45.651414 -122.741087 123 2240ft 147kts
30-Sep-18 17:31 45.631312 -122.689375 119 1476ft 151kts
30-Sep-18 17:32 45.612032 -122.639851 119 728ft 143kts
30-Sep-18 17:33 45.592407 -122.589423 118 34ft 135kts
30-Sep-18 17:34 45.585244 -122.571314 119 26ft 19kts
30-Sep-18 17:35 45.583561 -122.569963 292 26ft 9kts
30-Sep-18 17:36 45.584371 -122.572046 297 26ft 0kts
30-Sep-18 17:37 45.584371 -122.572048 297 26ft 0kts
30-Sep-18 17:38 45.585782 -122.575660 299 26ft 12kts
30-Sep-18 17:39 45.588049 -122.581479 298 26ft 20kts
30-Sep-18 17:40 45.590227 -122.588449 269 26ft 17kts
30-Sep-18 17:41 45.591461 -122.593223 284 26ft 10kts
30-Sep-18 17:42 45.591266 -122.594130 210 26ft 0kts
30-Sep-18 17:43 45.591266 -122.594130 210 26ft 0kts
30-Sep-18 17:44 45.591266 -122.594130 210 26ft 0kts
30-Sep-18 17:45 45.591266 -122.594130 210 26ft 0kts
30-Sep-18 17:46 45.591266 -122.594130 210 26ft 0kts

Navigation Log

Ident Type
Flight plan parsing failed, navigation log unavailable